sensor_id;sensor_type;location;lat;lon;timestamp;pressure;altitude;pressure_sealevel;temperature
67822;BMP180;54434;50.096;20.082;2023-04-29T00:00:48;98713.60;;;6.40
67822;BMP180;54434;50.096;20.082;2023-04-29T00:03:24;98710.20;;;6.38
67822;BMP180;54434;50.096;20.082;2023-04-29T00:06:04;98710.00;;;6.30
67822;BMP180;54434;50.096;20.082;2023-04-29T00:08:41;98708.60;;;6.30
67822;BMP180;54434;50.096;20.082;2023-04-29T00:11:17;98706.00;;;6.30
67822;BMP180;54434;50.096;20.082;2023-04-29T00:13:53;98709.20;;;6.20
67822;BMP180;54434;50.096;20.082;2023-04-29T00:16:30;98707.20;;;6.20
67822;BMP180;54434;50.096;20.082;2023-04-29T00:19:07;98703.80;;;6.20
67822;BMP180;54434;50.096;20.082;2023-04-29T00:21:43;98706.60;;;6.10
67822;BMP180;54434;50.096;20.082;2023-04-29T00:24:19;98702.40;;;6.08
67822;BMP180;54434;50.096;20.082;2023-04-29T00:26:55;98700.00;;;6.00
67822;BMP180;54434;50.096;20.082;2023-04-29T00:29:33;98700.60;;;6.00
67822;BMP180;54434;50.096;20.082;2023-04-29T00:32:09;98699.60;;;6.00
67822;BMP180;54434;50.096;20.082;2023-04-29T00:34:46;98699.80;;;6.00
67822;BMP180;54434;50.096;20.082;2023-04-29T00:37:22;98701.20;;;6.00
67822;BMP180;54434;50.096;20.082;2023-04-29T00:39:59;98700.80;;;6.00
67822;BMP180;54434;50.096;20.082;2023-04-29T00:42:35;98699.80;;;5.90
67822;BMP180;54434;50.096;20.082;2023-04-29T00:45:13;98700.60;;;5.90
67822;BMP180;54434;50.096;20.082;2023-04-29T00:47:50;98699.80;;;5.90
67822;BMP180;54434;50.096;20.082;2023-04-29T00:50:26;98696.40;;;5.90
67822;BMP180;54434;50.096;20.082;2023-04-29T00:53:03;98694.80;;;5.80
67822;BMP180;54434;50.096;20.082;2023-04-29T00:55:41;98695.00;;;5.76
67822;BMP180;54434;50.096;20.082;2023-04-29T00:58:19;98691.40;;;5.70
67822;BMP180;54434;50.096;20.082;2023-04-29T01:00:57;98694.00;;;5.70
67822;BMP180;54434;50.096;20.082;2023-04-29T01:03:34;98698.20;;;5.60
67822;BMP180;54434;50.096;20.082;2023-04-29T01:06:25;98699.40;;;5.60
67822;BMP180;54434;50.096;20.082;2023-04-29T01:09:32;98699.60;;;5.50
67822;BMP180;54434;50.096;20.082;2023-04-29T01:12:28;98702.20;;;5.40
67822;BMP180;54434;50.096;20.082;2023-04-29T01:15:20;98699.40;;;5.40
67822;BMP180;54434;50.096;20.082;2023-04-29T01:18:10;98697.00;;;5.30
67822;BMP180;54434;50.096;20.082;2023-04-29T01:20:48;98694.00;;;5.20
67822;BMP180;54434;50.096;20.082;2023-04-29T01:23:30;98695.60;;;5.20
67822;BMP180;54434;50.096;20.082;2023-04-29T01:26:07;98693.40;;;5.10
67822;BMP180;54434;50.096;20.082;2023-04-29T01:29:42;98695.40;;;5.10
67822;BMP180;54434;50.096;20.082;2023-04-29T01:32:40;98695.80;;;5.00
67822;BMP180;54434;50.096;20.082;2023-04-29T01:35:49;98696.20;;;5.00
67822;BMP180;54434;50.096;20.082;2023-04-29T01:38:38;98704.00;;;4.90
67822;BMP180;54434;50.096;20.082;2023-04-29T01:41:30;98695.80;;;4.90
67822;BMP180;54434;50.096;20.082;2023-04-29T01:44:31;98693.40;;;4.80
67822;BMP180;54434;50.096;20.082;2023-04-29T01:47:12;98694.40;;;4.80
67822;BMP180;54434;50.096;20.082;2023-04-29T01:49:54;98697.00;;;4.80
67822;BMP180;54434;50.096;20.082;2023-04-29T01:52:30;98696.00;;;4.70
67822;BMP180;54434;50.096;20.082;2023-04-29T01:55:09;98693.40;;;4.70
67822;BMP180;54434;50.096;20.082;2023-04-29T01:58:02;98693.40;;;4.70
67822;BMP180;54434;50.096;20.082;2023-04-29T02:00:52;98689.00;;;4.70
67822;BMP180;54434;50.096;20.082;2023-04-29T02:03:29;98688.80;;;4.70
67822;BMP180;54434;50.096;20.082;2023-04-29T02:06:07;98690.40;;;4.70
67822;BMP180;54434;50.096;20.082;2023-04-29T02:08:44;98689.60;;;4.70
67822;BMP180;54434;50.096;20.082;2023-04-29T02:11:24;98690.60;;;4.70
67822;BMP180;54434;50.096;20.082;2023-04-29T02:14:02;98688.00;;;4.78
67822;BMP180;54434;50.096;20.082;2023-04-29T02:16:39;98680.40;;;4.80
67822;BMP180;54434;50.096;20.082;2023-04-29T02:19:15;98688.00;;;4.80
67822;BMP180;54434;50.096;20.082;2023-04-29T02:21:52;98687.40;;;4.90
67822;BMP180;54434;50.096;20.082;2023-04-29T02:24:28;98681.80;;;4.90
67822;BMP180;54434;50.096;20.082;2023-04-29T02:27:04;98681.80;;;4.90
67822;BMP180;54434;50.096;20.082;2023-04-29T02:29:41;98681.00;;;5.00
67822;BMP180;54434;50.096;20.082;2023-04-29T02:32:17;98679.40;;;5.00
67822;BMP180;54434;50.096;20.082;2023-04-29T02:34:54;98680.60;;;5.10
67822;BMP180;54434;50.096;20.082;2023-04-29T02:37:30;98683.20;;;5.10
67822;BMP180;54434;50.096;20.082;2023-04-29T02:40:11;98684.60;;;5.20
67822;BMP180;54434;50.096;20.082;2023-04-29T02:42:47;98682.00;;;5.26
67822;BMP180;54434;50.096;20.082;2023-04-29T02:45:24;98681.00;;;5.30
67822;BMP180;54434;50.096;20.082;2023-04-29T02:48:00;98677.80;;;5.40
67822;BMP180;54434;50.096;20.082;2023-04-29T02:50:36;98683.60;;;5.42
67822;BMP180;54434;50.096;20.082;2023-04-29T02:53:13;98682.20;;;5.50
67822;BMP180;54434;50.096;20.082;2023-04-29T02:55:50;98675.80;;;5.52
67822;BMP180;54434;50.096;20.082;2023-04-29T02:58:26;98680.60;;;5.60
67822;BMP180;54434;50.096;20.082;2023-04-29T03:01:03;98679.60;;;5.62
67822;BMP180;54434;50.096;20.082;2023-04-29T03:03:39;98675.60;;;5.70
67822;BMP180;54434;50.096;20.082;2023-04-29T03:06:16;98674.20;;;5.74
67822;BMP180;54434;50.096;20.082;2023-04-29T03:08:53;98665.60;;;5.80
67822;BMP180;54434;50.096;20.082;2023-04-29T03:11:29;98662.60;;;5.90
67822;BMP180;54434;50.096;20.082;2023-04-29T03:14:07;98662.00;;;5.90
67822;BMP180;54434;50.096;20.082;2023-04-29T03:16:44;98663.80;;;6.00
67822;BMP180;54434;50.096;20.082;2023-04-29T03:19:20;98664.00;;;6.00
67822;BMP180;54434;50.096;20.082;2023-04-29T03:21:57;98664.00;;;6.10
67822;BMP180;54434;50.096;20.082;2023-04-29T03:24:33;98665.60;;;6.10
67822;BMP180;54434;50.096;20.082;2023-04-29T03:27:09;98670.80;;;6.18
67822;BMP180;54434;50.096;20.082;2023-04-29T03:29:46;98671.60;;;6.20
67822;BMP180;54434;50.096;20.082;2023-04-29T03:32:23;98669.00;;;6.20
67822;BMP180;54434;50.096;20.082;2023-04-29T03:35:00;98666.20;;;6.20
67822;BMP180;54434;50.096;20.082;2023-04-29T03:37:45;98668.60;;;6.30
67822;BMP180;54434;50.096;20.082;2023-04-29T03:40:30;98671.20;;;6.30
67822;BMP180;54434;50.096;20.082;2023-04-29T03:43:06;98667.60;;;6.30
67822;BMP180;54434;50.096;20.082;2023-04-29T03:45:43;98668.00;;;6.30
67822;BMP180;54434;50.096;20.082;2023-04-29T03:48:21;98668.40;;;6.40
67822;BMP180;54434;50.096;20.082;2023-04-29T03:50:58;98669.80;;;6.40
67822;BMP180;54434;50.096;20.082;2023-04-29T03:53:36;98668.40;;;6.40
67822;BMP180;54434;50.096;20.082;2023-04-29T03:56:12;98666.20;;;6.40
67822;BMP180;54434;50.096;20.082;2023-04-29T03:58:51;98668.80;;;6.50
67822;BMP180;54434;50.096;20.082;2023-04-29T04:01:28;98665.80;;;6.50
67822;BMP180;54434;50.096;20.082;2023-04-29T04:04:05;98668.40;;;6.50
67822;BMP180;54434;50.096;20.082;2023-04-29T04:06:43;98672.20;;;6.50
67822;BMP180;54434;50.096;20.082;2023-04-29T04:09:27;98672.40;;;6.60
67822;BMP180;54434;50.096;20.082;2023-04-29T04:12:05;98673.40;;;6.60
67822;BMP180;54434;50.096;20.082;2023-04-29T04:14:41;98671.40;;;6.70
67822;BMP180;54434;50.096;20.082;2023-04-29T04:17:17;98671.60;;;6.70
67822;BMP180;54434;50.096;20.082;2023-04-29T04:19:54;98668.80;;;6.70
67822;BMP180;54434;50.096;20.082;2023-04-29T04:22:30;98668.20;;;6.70
67822;BMP180;54434;50.096;20.082;2023-04-29T04:25:18;98664.60;;;6.80
67822;BMP180;54434;50.096;20.082;2023-04-29T04:27:54;98665.80;;;6.80
67822;BMP180;54434;50.096;20.082;2023-04-29T04:30:40;98668.80;;;6.82
67822;BMP180;54434;50.096;20.082;2023-04-29T04:33:17;98665.40;;;6.90
67822;BMP180;54434;50.096;20.082;2023-04-29T04:35:54;98664.80;;;6.90
67822;BMP180;54434;50.096;20.082;2023-04-29T04:38:30;98657.00;;;7.00
67822;BMP180;54434;50.096;20.082;2023-04-29T04:41:09;98654.40;;;7.00
67822;BMP180;54434;50.096;20.082;2023-04-29T04:43:46;98656.00;;;7.00
67822;BMP180;54434;50.096;20.082;2023-04-29T04:46:31;98657.20;;;7.00
67822;BMP180;54434;50.096;20.082;2023-04-29T04:49:57;98659.00;;;7.10
67822;BMP180;54434;50.096;20.082;2023-04-29T04:52:34;98661.00;;;7.10
67822;BMP180;54434;50.096;20.082;2023-04-29T04:55:21;98658.80;;;7.10
67822;BMP180;54434;50.096;20.082;2023-04-29T04:57:57;98659.00;;;7.16
67822;BMP180;54434;50.096;20.082;2023-04-29T05:00:35;98664.40;;;7.20
67822;BMP180;54434;50.096;20.082;2023-04-29T05:03:11;98661.80;;;7.20
67822;BMP180;54434;50.096;20.082;2023-04-29T05:05:53;98663.00;;;7.28
67822;BMP180;54434;50.096;20.082;2023-04-29T05:08:30;98661.20;;;7.30
67822;BMP180;54434;50.096;20.082;2023-04-29T05:11:16;98661.20;;;7.40
67822;BMP180;54434;50.096;20.082;2023-04-29T05:14:00;98659.80;;;7.40
67822;BMP180;54434;50.096;20.082;2023-04-29T05:16:39;98657.40;;;7.50
67822;BMP180;54434;50.096;20.082;2023-04-29T05:19:20;98659.60;;;7.60
67822;BMP180;54434;50.096;20.082;2023-04-29T05:21:57;98657.60;;;7.60
67822;BMP180;54434;50.096;20.082;2023-04-29T05:24:33;98659.40;;;7.70
67822;BMP180;54434;50.096;20.082;2023-04-29T05:27:09;98660.60;;;7.76
67822;BMP180;54434;50.096;20.082;2023-04-29T05:29:46;98668.40;;;7.80
67822;BMP180;54434;50.096;20.082;2023-04-29T05:32:22;98668.80;;;7.90
67822;BMP180;54434;50.096;20.082;2023-04-29T05:34:58;98668.80;;;7.98
67822;BMP180;54434;50.096;20.082;2023-04-29T05:37:35;98670.20;;;8.00
67822;BMP180;54434;50.096;20.082;2023-04-29T05:40:35;98669.00;;;8.10
67822;BMP180;54434;50.096;20.082;2023-04-29T05:44:06;98665.80;;;8.30
67822;BMP180;54434;50.096;20.082;2023-04-29T05:46:42;98665.80;;;8.38
67822;BMP180;54434;50.096;20.082;2023-04-29T05:49:19;98667.00;;;8.50
67822;BMP180;54434;50.096;20.082;2023-04-29T05:51:55;98669.20;;;8.58
67822;BMP180;54434;50.096;20.082;2023-04-29T05:54:32;98674.20;;;8.60
67822;BMP180;54434;50.096;20.082;2023-04-29T05:57:08;98673.80;;;8.70
67822;BMP180;54434;50.096;20.082;2023-04-29T05:59:47;98677.80;;;8.80
67822;BMP180;54434;50.096;20.082;2023-04-29T06:02:23;98680.00;;;8.90
67822;BMP180;54434;50.096;20.082;2023-04-29T06:04:59;98673.00;;;8.90
67822;BMP180;54434;50.096;20.082;2023-04-29T06:07:47;98672.00;;;9.00
67822;BMP180;54434;50.096;20.082;2023-04-29T06:10:38;98671.40;;;9.10
67822;BMP180;54434;50.096;20.082;2023-04-29T06:13:16;98669.20;;;9.20
67822;BMP180;54434;50.096;20.082;2023-04-29T06:15:53;98667.80;;;9.30
67822;BMP180;54434;50.096;20.082;2023-04-29T06:18:30;98668.00;;;9.40
67822;BMP180;54434;50.096;20.082;2023-04-29T06:21:07;98667.20;;;9.50
67822;BMP180;54434;50.096;20.082;2023-04-29T06:23:43;98669.20;;;9.54
67822;BMP180;54434;50.096;20.082;2023-04-29T06:26:24;98672.00;;;9.60
67822;BMP180;54434;50.096;20.082;2023-04-29T06:29:01;98670.80;;;9.72
67822;BMP180;54434;50.096;20.082;2023-04-29T06:31:37;98671.60;;;9.90
67822;BMP180;54434;50.096;20.082;2023-04-29T06:34:14;98666.60;;;9.98
67822;BMP180;54434;50.096;20.082;2023-04-29T06:37:16;98673.20;;;10.10
67822;BMP180;54434;50.096;20.082;2023-04-29T06:40:34;98669.60;;;10.28
67822;BMP180;54434;50.096;20.082;2023-04-29T06:43:51;98669.40;;;10.50
67822;BMP180;54434;50.096;20.082;2023-04-29T06:47:14;98669.60;;;10.80
67822;BMP180;54434;50.096;20.082;2023-04-29T06:50:31;98663.40;;;11.08
67822;BMP180;54434;50.096;20.082;2023-04-29T06:53:07;98669.00;;;11.20
67822;BMP180;54434;50.096;20.082;2023-04-29T06:55:44;98665.20;;;11.40
67822;BMP180;54434;50.096;20.082;2023-04-29T06:58:21;98667.00;;;11.50
67822;BMP180;54434;50.096;20.082;2023-04-29T07:00:57;98669.40;;;11.62
67822;BMP180;54434;50.096;20.082;2023-04-29T07:03:34;98668.00;;;11.78
67822;BMP180;54434;50.096;20.082;2023-04-29T07:06:11;98670.60;;;11.80
67822;BMP180;54434;50.096;20.082;2023-04-29T07:08:47;98670.20;;;11.90
67822;BMP180;54434;50.096;20.082;2023-04-29T07:11:25;98673.20;;;12.00
67822;BMP180;54434;50.096;20.082;2023-04-29T07:14:02;98673.60;;;12.10
67822;BMP180;54434;50.096;20.082;2023-04-29T07:16:39;98673.40;;;12.12
67822;BMP180;54434;50.096;20.082;2023-04-29T07:19:17;98672.20;;;12.20
67822;BMP180;54434;50.096;20.082;2023-04-29T07:21:54;98677.80;;;12.30
67822;BMP180;54434;50.096;20.082;2023-04-29T07:24:31;98682.00;;;12.32
67822;BMP180;54434;50.096;20.082;2023-04-29T07:27:07;98670.00;;;12.40
67822;BMP180;54434;50.096;20.082;2023-04-29T07:29:44;98667.40;;;12.50
67822;BMP180;54434;50.096;20.082;2023-04-29T07:32:20;98662.60;;;12.70
67822;BMP180;54434;50.096;20.082;2023-04-29T07:34:57;98661.40;;;12.94
67822;BMP180;54434;50.096;20.082;2023-04-29T07:37:33;98661.60;;;13.12
67822;BMP180;54434;50.096;20.082;2023-04-29T07:40:13;98663.00;;;13.40
67822;BMP180;54434;50.096;20.082;2023-04-29T07:42:51;98657.00;;;13.60
67822;BMP180;54434;50.096;20.082;2023-04-29T07:45:27;98657.20;;;13.80
67822;BMP180;54434;50.096;20.082;2023-04-29T07:48:04;98659.40;;;14.10
67822;BMP180;54434;50.096;20.082;2023-04-29T07:50:40;98658.60;;;14.30
67822;BMP180;54434;50.096;20.082;2023-04-29T07:53:18;98660.00;;;14.56
67822;BMP180;54434;50.096;20.082;2023-04-29T07:55:54;98657.80;;;14.88
67822;BMP180;54434;50.096;20.082;2023-04-29T07:58:33;98659.00;;;15.20
67822;BMP180;54434;50.096;20.082;2023-04-29T08:01:13;98663.20;;;15.56
67822;BMP180;54434;50.096;20.082;2023-04-29T08:03:49;98667.80;;;16.00
67822;BMP180;54434;50.096;20.082;2023-04-29T08:06:26;98669.60;;;16.30
67822;BMP180;54434;50.096;20.082;2023-04-29T08:09:03;98670.40;;;16.62
67822;BMP180;54434;50.096;20.082;2023-04-29T08:11:40;98669.80;;;16.94
67822;BMP180;54434;50.096;20.082;2023-04-29T08:14:19;98673.20;;;17.30
67822;BMP180;54434;50.096;20.082;2023-04-29T08:16:55;98676.20;;;17.60
67822;BMP180;54434;50.096;20.082;2023-04-29T08:19:32;98673.40;;;17.68
67822;BMP180;54434;50.096;20.082;2023-04-29T08:22:08;98674.20;;;17.70
67822;BMP180;54434;50.096;20.082;2023-04-29T08:24:46;98674.60;;;17.80
67822;BMP180;54434;50.096;20.082;2023-04-29T08:27:23;98675.20;;;17.80
67822;BMP180;54434;50.096;20.082;2023-04-29T08:29:59;98678.60;;;17.94
67822;BMP180;54434;50.096;20.082;2023-04-29T08:32:36;98681.00;;;18.00
67822;BMP180;54434;50.096;20.082;2023-04-29T08:35:13;98682.00;;;18.00
67822;BMP180;54434;50.096;20.082;2023-04-29T08:37:50;98679.80;;;18.00
67822;BMP180;54434;50.096;20.082;2023-04-29T08:40:28;98675.60;;;18.10
67822;BMP180;54434;50.096;20.082;2023-04-29T08:43:05;98671.40;;;18.30
67822;BMP180;54434;50.096;20.082;2023-04-29T08:45:44;98676.60;;;18.40
67822;BMP180;54434;50.096;20.082;2023-04-29T08:48:24;98668.60;;;18.30
67822;BMP180;54434;50.096;20.082;2023-04-29T08:51:02;98668.20;;;18.30
67822;BMP180;54434;50.096;20.082;2023-04-29T08:53:39;98666.40;;;18.36
67822;BMP180;54434;50.096;20.082;2023-04-29T08:56:18;98663.60;;;18.58
67822;BMP180;54434;50.096;20.082;2023-04-29T08:58:57;98664.40;;;18.80
67822;BMP180;54434;50.096;20.082;2023-04-29T09:01:37;98662.80;;;19.00
67822;BMP180;54434;50.096;20.082;2023-04-29T09:04:28;98662.00;;;19.10
67822;BMP180;54434;50.096;20.082;2023-04-29T09:07:06;98662.00;;;19.10
67822;BMP180;54434;50.096;20.082;2023-04-29T09:09:43;98662.60;;;19.14
67822;BMP180;54434;50.096;20.082;2023-04-29T09:12:21;98658.00;;;19.22
67822;BMP180;54434;50.096;20.082;2023-04-29T09:14:58;98659.00;;;19.30
67822;BMP180;54434;50.096;20.082;2023-04-29T09:17:46;98661.80;;;19.54
67822;BMP180;54434;50.096;20.082;2023-04-29T09:20:32;98658.80;;;19.70
67822;BMP180;54434;50.096;20.082;2023-04-29T09:23:09;98655.80;;;19.86
67822;BMP180;54434;50.096;20.082;2023-04-29T09:25:57;98658.80;;;20.00
67822;BMP180;54434;50.096;20.082;2023-04-29T09:28:35;98658.20;;;20.10
67822;BMP180;54434;50.096;20.082;2023-04-29T09:31:14;98656.80;;;20.12
67822;BMP180;54434;50.096;20.082;2023-04-29T09:34:02;98658.40;;;20.10
67822;BMP180;54434;50.096;20.082;2023-04-29T09:36:46;98656.40;;;20.30
67822;BMP180;54434;50.096;20.082;2023-04-29T09:39:24;98657.80;;;20.44
67822;BMP180;54434;50.096;20.082;2023-04-29T09:42:04;98655.60;;;20.40
67822;BMP180;54434;50.096;20.082;2023-04-29T09:44:43;98655.20;;;20.30
67822;BMP180;54434;50.096;20.082;2023-04-29T09:47:31;98658.60;;;20.40
67822;BMP180;54434;50.096;20.082;2023-04-29T09:50:17;98658.80;;;20.30
67822;BMP180;54434;50.096;20.082;2023-04-29T09:52:53;98655.40;;;20.36
67822;BMP180;54434;50.096;20.082;2023-04-29T09:55:31;98657.40;;;20.40
67822;BMP180;54434;50.096;20.082;2023-04-29T09:58:08;98655.60;;;20.40
67822;BMP180;54434;50.096;20.082;2023-04-29T10:01:04;98652.60;;;20.32
67822;BMP180;54434;50.096;20.082;2023-04-29T10:03:44;98649.40;;;20.20
67822;BMP180;54434;50.096;20.082;2023-04-29T10:06:21;98649.60;;;20.18
67822;BMP180;54434;50.096;20.082;2023-04-29T10:08:59;98644.60;;;20.20
67822;BMP180;54434;50.096;20.082;2023-04-29T10:11:36;98650.40;;;20.40
67822;BMP180;54434;50.096;20.082;2023-04-29T10:14:16;98643.40;;;20.50
67822;BMP180;54434;50.096;20.082;2023-04-29T10:17:01;98646.60;;;20.50
67822;BMP180;54434;50.096;20.082;2023-04-29T10:19:56;98647.60;;;20.40
67822;BMP180;54434;50.096;20.082;2023-04-29T10:22:46;98643.60;;;20.40
67822;BMP180;54434;50.096;20.082;2023-04-29T10:25:25;98637.40;;;20.40
67822;BMP180;54434;50.096;20.082;2023-04-29T10:28:06;98638.20;;;20.40
67822;BMP180;54434;50.096;20.082;2023-04-29T10:30:49;98637.60;;;20.40
67822;BMP180;54434;50.096;20.082;2023-04-29T10:33:25;98633.60;;;20.40
67822;BMP180;54434;50.096;20.082;2023-04-29T10:36:06;98633.60;;;20.30
67822;BMP180;54434;50.096;20.082;2023-04-29T10:38:48;98629.60;;;20.20
67822;BMP180;54434;50.096;20.082;2023-04-29T10:41:32;98633.20;;;20.10
67822;BMP180;54434;50.096;20.082;2023-04-29T10:44:10;98637.80;;;19.90
67822;BMP180;54434;50.096;20.082;2023-04-29T10:46:46;98631.80;;;19.70
67822;BMP180;54434;50.096;20.082;2023-04-29T10:49:23;98624.20;;;19.50
67822;BMP180;54434;50.096;20.082;2023-04-29T10:52:08;98623.20;;;19.40
67822;BMP180;54434;50.096;20.082;2023-04-29T10:55:06;98629.00;;;19.30
67822;BMP180;54434;50.096;20.082;2023-04-29T10:57:43;98627.80;;;19.20
67822;BMP180;54434;50.096;20.082;2023-04-29T11:00:29;98627.00;;;19.10
67822;BMP180;54434;50.096;20.082;2023-04-29T11:03:51;98623.60;;;19.10
67822;BMP180;54434;50.096;20.082;2023-04-29T11:06:47;98621.80;;;19.20
67822;BMP180;54434;50.096;20.082;2023-04-29T11:09:29;98621.60;;;19.00
67822;BMP180;54434;50.096;20.082;2023-04-29T11:12:10;98619.00;;;19.00
67822;BMP180;54434;50.096;20.082;2023-04-29T11:14:53;98620.80;;;19.00
67822;BMP180;54434;50.096;20.082;2023-04-29T11:17:40;98618.60;;;19.00
67822;BMP180;54434;50.096;20.082;2023-04-29T11:20:17;98617.00;;;18.92
67822;BMP180;54434;50.096;20.082;2023-04-29T11:22:57;98617.60;;;18.90
67822;BMP180;54434;50.096;20.082;2023-04-29T11:25:34;98615.20;;;18.90
67822;BMP180;54434;50.096;20.082;2023-04-29T11:28:14;98612.60;;;18.90
67822;BMP180;54434;50.096;20.082;2023-04-29T11:30:52;98611.20;;;18.90
67822;BMP180;54434;50.096;20.082;2023-04-29T11:33:32;98619.60;;;18.90
67822;BMP180;54434;50.096;20.082;2023-04-29T11:36:10;98620.00;;;18.80
67822;BMP180;54434;50.096;20.082;2023-04-29T11:38:47;98618.80;;;18.70
67822;BMP180;54434;50.096;20.082;2023-04-29T11:41:25;98618.60;;;18.60
67822;BMP180;54434;50.096;20.082;2023-04-29T11:44:02;98621.60;;;18.42
67822;BMP180;54434;50.096;20.082;2023-04-29T11:46:41;98619.20;;;18.30
67822;BMP180;54434;50.096;20.082;2023-04-29T11:49:18;98617.40;;;18.22
67822;BMP180;54434;50.096;20.082;2023-04-29T11:51:56;98617.40;;;18.20
67822;BMP180;54434;50.096;20.082;2023-04-29T11:54:34;98610.20;;;18.10
67822;BMP180;54434;50.096;20.082;2023-04-29T11:57:12;98609.60;;;18.10
67822;BMP180;54434;50.096;20.082;2023-04-29T11:59:49;98607.80;;;18.10
67822;BMP180;54434;50.096;20.082;2023-04-29T12:02:31;98601.40;;;18.10
67822;BMP180;54434;50.096;20.082;2023-04-29T12:05:12;98599.40;;;18.20
67822;BMP180;54434;50.096;20.082;2023-04-29T12:07:51;98605.00;;;18.20
67822;BMP180;54434;50.096;20.082;2023-04-29T12:10:27;98606.80;;;18.10
67822;BMP180;54434;50.096;20.082;2023-04-29T12:13:05;98603.00;;;18.10
67822;BMP180;54434;50.096;20.082;2023-04-29T12:15:45;98608.20;;;18.10
67822;BMP180;54434;50.096;20.082;2023-04-29T12:18:22;98608.60;;;18.20
67822;BMP180;54434;50.096;20.082;2023-04-29T12:21:01;98605.80;;;18.20
67822;BMP180;54434;50.096;20.082;2023-04-29T12:23:39;98606.20;;;18.30
67822;BMP180;54434;50.096;20.082;2023-04-29T12:26:17;98607.40;;;18.30
67822;BMP180;54434;50.096;20.082;2023-04-29T12:28:59;98606.60;;;18.30
67822;BMP180;54434;50.096;20.082;2023-04-29T12:31:37;98603.60;;;18.30
67822;BMP180;54434;50.096;20.082;2023-04-29T12:34:14;98602.20;;;18.20
67822;BMP180;54434;50.096;20.082;2023-04-29T12:36:50;98599.80;;;18.18
67822;BMP180;54434;50.096;20.082;2023-04-29T12:39:30;98595.60;;;18.10
67822;BMP180;54434;50.096;20.082;2023-04-29T12:42:16;98595.40;;;18.10
67822;BMP180;54434;50.096;20.082;2023-04-29T12:44:53;98596.00;;;18.04
67822;BMP180;54434;50.096;20.082;2023-04-29T12:47:34;98595.40;;;18.00
67822;BMP180;54434;50.096;20.082;2023-04-29T12:50:13;98591.40;;;18.00
67822;BMP180;54434;50.096;20.082;2023-04-29T12:52:49;98588.40;;;18.00
67822;BMP180;54434;50.096;20.082;2023-04-29T12:55:26;98589.80;;;18.00
67822;BMP180;54434;50.096;20.082;2023-04-29T12:58:03;98582.80;;;18.00
67822;BMP180;54434;50.096;20.082;2023-04-29T13:00:40;98578.80;;;17.90
67822;BMP180;54434;50.096;20.082;2023-04-29T13:03:16;98577.80;;;17.90
67822;BMP180;54434;50.096;20.082;2023-04-29T13:05:56;98576.60;;;17.90
67822;BMP180;54434;50.096;20.082;2023-04-29T13:08:33;98574.40;;;17.90
67822;BMP180;54434;50.096;20.082;2023-04-29T13:11:10;98577.60;;;17.98
67822;BMP180;54434;50.096;20.082;2023-04-29T13:13:47;98579.00;;;17.96
67822;BMP180;54434;50.096;20.082;2023-04-29T13:16:24;98576.60;;;17.94
67822;BMP180;54434;50.096;20.082;2023-04-29T13:19:00;98581.00;;;17.90
67822;BMP180;54434;50.096;20.082;2023-04-29T13:21:56;98579.40;;;17.82
67822;BMP180;54434;50.096;20.082;2023-04-29T13:24:33;98579.80;;;17.80
67822;BMP180;54434;50.096;20.082;2023-04-29T13:27:11;98581.40;;;17.70
67822;BMP180;54434;50.096;20.082;2023-04-29T13:29:47;98582.20;;;17.62
67822;BMP180;54434;50.096;20.082;2023-04-29T13:32:24;98582.20;;;17.60
67822;BMP180;54434;50.096;20.082;2023-04-29T13:35:17;98576.40;;;17.40
67822;BMP180;54434;50.096;20.082;2023-04-29T13:37:53;98576.20;;;17.36
67822;BMP180;54434;50.096;20.082;2023-04-29T13:40:31;98575.00;;;17.24
67822;BMP180;54434;50.096;20.082;2023-04-29T13:43:13;98572.00;;;17.16
67822;BMP180;54434;50.096;20.082;2023-04-29T13:46:03;98572.40;;;17.06
67822;BMP180;54434;50.096;20.082;2023-04-29T13:48:42;98569.60;;;17.00
67822;BMP180;54434;50.096;20.082;2023-04-29T13:51:38;98565.80;;;16.88
67822;BMP180;54434;50.096;20.082;2023-04-29T13:54:17;98570.00;;;16.80
67822;BMP180;54434;50.096;20.082;2023-04-29T13:56:57;98569.60;;;16.80
67822;BMP180;54434;50.096;20.082;2023-04-29T13:59:37;98569.20;;;16.80
67822;BMP180;54434;50.096;20.082;2023-04-29T14:02:24;98570.80;;;16.80
67822;BMP180;54434;50.096;20.082;2023-04-29T14:05:02;98572.20;;;16.70
67822;BMP180;54434;50.096;20.082;2023-04-29T14:07:39;98573.20;;;16.70
67822;BMP180;54434;50.096;20.082;2023-04-29T14:10:15;98575.00;;;16.60
67822;BMP180;54434;50.096;20.082;2023-04-29T14:12:52;98574.40;;;16.50
67822;BMP180;54434;50.096;20.082;2023-04-29T14:15:29;98572.80;;;16.40
67822;BMP180;54434;50.096;20.082;2023-04-29T14:18:05;98570.20;;;16.30
67822;BMP180;54434;50.096;20.082;2023-04-29T14:20:43;98571.20;;;16.22
67822;BMP180;54434;50.096;20.082;2023-04-29T14:23:20;98572.40;;;16.12
67822;BMP180;54434;50.096;20.082;2023-04-29T14:25:56;98573.00;;;16.10
67822;BMP180;54434;50.096;20.082;2023-04-29T14:28:53;98574.80;;;16.10
67822;BMP180;54434;50.096;20.082;2023-04-29T14:31:35;98574.00;;;16.00
67822;BMP180;54434;50.096;20.082;2023-04-29T14:34:12;98573.40;;;16.00
67822;BMP180;54434;50.096;20.082;2023-04-29T14:36:48;98570.60;;;15.90
67822;BMP180;54434;50.096;20.082;2023-04-29T14:39:25;98570.40;;;15.86
67822;BMP180;54434;50.096;20.082;2023-04-29T14:42:02;98571.00;;;15.80
67822;BMP180;54434;50.096;20.082;2023-04-29T14:44:38;98574.20;;;15.76
67822;BMP180;54434;50.096;20.082;2023-04-29T14:47:15;98574.80;;;15.70
67822;BMP180;54434;50.096;20.082;2023-04-29T14:49:52;98572.60;;;15.60
67822;BMP180;54434;50.096;20.082;2023-04-29T14:52:28;98574.60;;;15.50
67822;BMP180;54434;50.096;20.082;2023-04-29T14:55:08;98571.80;;;15.50
67822;BMP180;54434;50.096;20.082;2023-04-29T14:57:45;98572.00;;;15.46
67822;BMP180;54434;50.096;20.082;2023-04-29T15:00:22;98571.20;;;15.40
67822;BMP180;54434;50.096;20.082;2023-04-29T15:02:58;98574.00;;;15.40
67822;BMP180;54434;50.096;20.082;2023-04-29T15:05:37;98574.80;;;15.40
67822;BMP180;54434;50.096;20.082;2023-04-29T15:08:14;98579.00;;;15.40
67822;BMP180;54434;50.096;20.082;2023-04-29T15:10:51;98580.40;;;15.40
67822;BMP180;54434;50.096;20.082;2023-04-29T15:13:28;98579.60;;;15.32
67822;BMP180;54434;50.096;20.082;2023-04-29T15:16:07;98581.60;;;15.32